Frederick, OK

9:50 PM CDT on August 28, 2014 (GMT -0500)
Frederick Municipal | Change Station
CLOSE
Current Station
Airport
Location: Frederick,
Elevation: 1253 ft
Nearby Weather Stations

Elev 1253 ft 34.35 °N, 98.98 °W | Updated 9 minutes ago

Light Thunderstorms and Rain
Light Thunderstorm Rain
69 °F
Feels Like 69 °F
N
16
Wind Variable Wind from SE

Today
High -- | Low -- °F
--% Chance of Precip.
Yesterday
High -- | Low -- °F
Precip. -- in
7:06 AM 8:07 PM
Waxing Crescent, 11% visible
Pressure 29.92 in
Visibility 10.0 miles
Clouds Few 8000 ft
Overcast 11000 ft
Dew Point 67 °F
Humidity 93%
Rainfall 0.49 in
Snow Depth Not available.
UV 0 out of 12
Pollen 10.00 out of 12
Air Quality Not available.
Flu Activity Not available.
SPECI KFDR 290241Z AUTO 13014KT 10SM -TSRA FEW080 OVC110 21/19 A2992 RMK AO2 LTG DSNT ALQDS TSE28B35 P0042 T02060194

More Conditions Fewer Conditions

Pressure 29.92 in
Visibility 10.0 miles
Clouds Few 8000 ft
Overcast 11000 ft
Dew Point 67 °F
Humidity 93%
Rainfall 0.49 in
Snow Depth Not available.
UV 0 out of 12
Pollen 10.00 out of 12
Air Quality Not available.
Flu Activity Not available.
SPECI KFDR 290241Z AUTO 13014KT 10SM -TSRA FEW080 OVC110 21/19 A2992 RMK AO2 LTG DSNT ALQDS TSE28B35 P0042 T02060194

More Conditions Fewer Conditions

10-Day Weather Forecast

Almanac

Astronomy

Aug. 28, 2014 Rise Set
Actual Time 7:06 AM CDT 8:07 PM CDT
Civil Twilight 6:40 AM CDT 8:33 PM CDT
Nautical Twilight 6:09 AM CDT 9:03 PM CDT
Astronomical Twilight 5:38 AM CDT 9:35 PM CDT
Moon 9:50 AM CDT (8/28) 9:42 PM CDT (8/28)
Length of Visible Light 13h 52m
Length of Day
13h 00m
Tomorrow will be 2m 2s shorter.
Waxing Crescent, 11% of the Moon is Illuminated
Today
Waxing Crescent
Sep 2
First Quarter
Sep 8
Full
Sep 15
Last Quarter
Sep 24
New

Today's Extremes

State Highs State Lows

Community

WunderPhotos

Upload Photos

1,748,133 photos uploaded!

Nearby

Snow Depth

Station Depth Elevation
No new snow has been reported.

Earthquake Activity

City Distance Mag. Time & Date
Stillwater, Oklahoma 153 miles 3.1 10:44 AM CDT
2014-08-27
Guthrie, Oklahoma 131 miles 3.2 11:05 AM CDT
2014-08-26
Harrah, Oklahoma 129 miles 2.5 8:53 AM CDT
2014-08-26
Perry, Oklahoma 149 miles 2.5 8:07 AM CDT
2014-08-26
Minimum magnitude displayed is 2.5.

Coastal Water Temperatures

Place Temperature
No Stations Reporting

Nearby Weather Stations